createdAt,value
2022-11-05T00:02:05.991Z,59.48
2022-11-05T00:05:14.939Z,59.47
2022-11-05T00:08:24.962Z,59.43
2022-11-05T00:11:18.277Z,59.40
2022-11-05T00:14:27.428Z,59.36
2022-11-05T00:17:17.980Z,59.34
2022-11-05T00:20:13.051Z,59.32
2022-11-05T00:23:22.463Z,59.28
2022-11-05T00:26:13.032Z,59.23
2022-11-05T00:29:03.462Z,59.15
2022-11-05T00:31:53.958Z,59.06
2022-11-05T00:34:44.255Z,58.99
2022-11-05T00:37:36.277Z,58.97
2022-11-05T00:40:26.607Z,58.92
2022-11-05T00:43:35.636Z,58.86
2022-11-05T00:46:26.006Z,58.83
2022-11-05T00:49:31.793Z,58.82
2022-11-05T00:52:40.238Z,58.83
2022-11-05T00:55:34.419Z,58.85
2022-11-05T00:58:26.687Z,58.84
2022-11-05T01:01:17.136Z,58.79
2022-11-05T01:04:07.683Z,58.81
2022-11-05T01:06:58.025Z,58.79
2022-11-05T01:09:48.319Z,58.79
2022-11-05T01:12:43.172Z,58.79
2022-11-05T01:15:34.445Z,58.72
2022-11-05T01:18:25.564Z,58.76
2022-11-05T01:21:15.907Z,58.77
2022-11-05T01:24:09.858Z,58.80
2022-11-05T01:27:00.183Z,58.80
2022-11-05T01:29:50.639Z,58.73
2022-11-05T01:32:40.972Z,58.79
2022-11-05T01:35:31.644Z,58.77
2022-11-05T01:38:21.998Z,58.79
2022-11-05T01:41:12.323Z,58.78
2022-11-05T01:44:02.733Z,58.80
2022-11-05T01:46:53.175Z,58.80
2022-11-05T01:49:43.871Z,58.80
2022-11-05T01:52:34.199Z,58.83
2022-11-05T01:55:26.719Z,58.84
2022-11-05T01:58:22.666Z,58.85
2022-11-05T02:01:12.847Z,58.85
2022-11-05T02:04:05.843Z,58.83
2022-11-05T02:06:56.151Z,58.85
2022-11-05T02:09:49.578Z,58.85
2022-11-05T02:12:41.486Z,58.84
2022-11-05T02:15:39.992Z,58.84
2022-11-05T02:18:40.442Z,58.83
2022-11-05T02:22:01.689Z,58.80
2022-11-05T02:25:03.657Z,58.80
2022-11-05T02:28:24.085Z,58.77
2022-11-05T02:31:17.044Z,58.76
2022-11-05T02:34:10.554Z,58.72
2022-11-05T02:37:05.602Z,58.67
2022-11-05T02:40:00.862Z,58.62
2022-11-05T02:42:58.563Z,58.58
2022-11-05T02:45:53.364Z,58.55
2022-11-05T02:48:48.567Z,58.55
2022-11-05T02:51:43.838Z,58.52
2022-11-05T02:54:36.483Z,58.49
2022-11-05T02:57:29.224Z,58.48
2022-11-05T03:00:46.821Z,58.43
2022-11-05T03:03:39.034Z,58.44
2022-11-05T03:06:52.851Z,58.46
2022-11-05T03:10:11.648Z,58.48
2022-11-05T03:13:11.049Z,58.46
2022-11-05T03:16:04.926Z,58.45
2022-11-05T03:19:03.572Z,58.46
2022-11-05T03:21:56.872Z,58.44
2022-11-05T03:24:48.935Z,58.42
2022-11-05T03:27:43.162Z,58.39
2022-11-05T03:30:33.586Z,58.45
2022-11-05T03:33:25.458Z,58.46
2022-11-05T03:36:21.138Z,58.44
2022-11-05T03:39:13.930Z,58.39
2022-11-05T03:42:04.994Z,58.45
2022-11-05T03:45:03.548Z,58.48
2022-11-05T03:47:55.819Z,58.43
2022-11-05T03:50:49.507Z,58.49
2022-11-05T03:53:42.960Z,58.54
2022-11-05T03:56:37.632Z,58.55
2022-11-05T03:59:28.813Z,58.58
2022-11-05T04:02:22.272Z,58.62
2022-11-05T04:05:12.861Z,58.62
2022-11-05T04:08:21.821Z,58.64
2022-11-05T04:11:29.766Z,58.64
2022-11-05T04:14:20.166Z,58.65
2022-11-05T04:17:10.561Z,58.65
2022-11-05T04:20:19.577Z,58.66
2022-11-05T04:23:28.729Z,58.65
2022-11-05T04:26:22.714Z,58.64
2022-11-05T04:29:31.225Z,58.62
2022-11-05T04:32:21.596Z,58.63
2022-11-05T04:35:11.930Z,58.62
2022-11-05T04:38:02.432Z,58.63
2022-11-05T04:41:12.556Z,58.62
2022-11-05T04:44:03.000Z,58.62
2022-11-05T04:46:53.359Z,58.60
2022-11-05T04:49:43.704Z,58.56
2022-11-05T04:52:34.151Z,58.50
2022-11-05T04:55:24.505Z,58.48
2022-11-05T04:58:15.195Z,58.43
2022-11-05T05:01:05.617Z,58.43
2022-11-05T05:03:56.413Z,58.40
2022-11-05T05:06:48.121Z,58.34
2022-11-05T05:09:38.442Z,58.26
2022-11-05T05:12:29.203Z,58.28
2022-11-05T05:15:19.818Z,58.28
2022-11-05T05:18:10.985Z,58.31
2022-11-05T05:21:21.114Z,58.32
2022-11-05T05:24:12.927Z,58.30
2022-11-05T05:27:03.283Z,58.27
2022-11-05T05:29:53.664Z,58.24
2022-11-05T05:32:44.036Z,58.26
2022-11-05T05:35:34.768Z,58.26
2022-11-05T05:38:25.248Z,58.29
2022-11-05T05:41:16.333Z,58.28
2022-11-05T05:44:07.362Z,58.28
2022-11-05T05:46:57.788Z,58.29
2022-11-05T05:49:49.188Z,58.27
2022-11-05T05:52:39.547Z,58.29
2022-11-05T05:55:29.925Z,58.33
2022-11-05T05:58:20.722Z,58.34
2022-11-05T06:01:18.685Z,58.38
2022-11-05T06:04:11.105Z,58.40
2022-11-05T06:07:01.721Z,58.44
2022-11-05T06:09:52.108Z,58.49
2022-11-05T06:12:42.973Z,58.51
2022-11-05T06:15:36.071Z,58.53
2022-11-05T06:18:26.643Z,58.55
2022-11-05T06:21:18.526Z,58.56
2022-11-05T06:24:10.822Z,58.56
2022-11-05T06:27:01.216Z,58.58
2022-11-05T06:29:51.891Z,58.58
2022-11-05T06:32:42.246Z,58.58
2022-11-05T06:35:33.007Z,58.56
2022-11-05T06:38:26.196Z,58.60
2022-11-05T06:41:18.870Z,58.55
2022-11-05T06:44:12.457Z,58.53
2022-11-05T06:47:03.575Z,58.54
2022-11-05T06:49:57.097Z,58.54
2022-11-05T06:52:53.210Z,58.54
2022-11-05T06:55:44.463Z,58.54
2022-11-05T06:58:37.075Z,58.51
2022-11-05T07:01:28.384Z,58.44
2022-11-05T07:04:19.432Z,58.41
2022-11-05T07:07:14.688Z,58.22
2022-11-05T07:10:13.714Z,57.99
2022-11-05T07:13:08.144Z,57.80
2022-11-05T07:15:59.633Z,57.52
2022-11-05T07:18:52.453Z,57.19
2022-11-05T07:21:43.278Z,56.88
2022-11-05T07:24:34.100Z,56.55
2022-11-05T07:27:25.013Z,56.63
2022-11-05T07:30:15.939Z,56.65
2022-11-05T07:33:07.343Z,56.67
2022-11-05T07:35:58.679Z,56.75
2022-11-05T07:38:49.175Z,56.80
2022-11-05T07:41:39.702Z,56.77
2022-11-05T07:44:30.192Z,56.86
2022-11-05T07:47:20.574Z,56.91
2022-11-05T07:50:11.838Z,56.91
2022-11-05T07:53:02.619Z,57.00
2022-11-05T07:55:53.171Z,57.02
2022-11-05T07:58:43.573Z,57.03
2022-11-05T08:01:34.204Z,57.05
2022-11-05T08:04:25.032Z,57.08
2022-11-05T08:07:15.369Z,57.13
2022-11-05T08:10:07.849Z,57.16
2022-11-05T08:12:58.280Z,57.18
2022-11-05T08:15:48.666Z,57.17
2022-11-05T08:18:39.114Z,57.22
2022-11-05T08:21:30.213Z,57.24
2022-11-05T08:24:20.609Z,57.24
2022-11-05T08:27:11.027Z,57.28
2022-11-05T08:30:01.624Z,57.29
2022-11-05T08:32:52.923Z,57.29
2022-11-05T08:35:43.384Z,57.38
2022-11-05T08:38:33.784Z,57.40
2022-11-05T08:41:24.182Z,57.55
2022-11-05T08:44:14.525Z,57.59
2022-11-05T08:47:04.996Z,57.67
2022-11-05T08:49:55.395Z,57.66
2022-11-05T08:52:46.273Z,57.63
2022-11-05T08:55:37.888Z,57.63
2022-11-05T08:58:28.299Z,57.61
2022-11-05T09:01:18.969Z,57.62
2022-11-05T09:04:09.403Z,57.58
2022-11-05T09:07:00.394Z,57.56
2022-11-05T09:09:50.737Z,57.59
2022-11-05T09:12:44.107Z,57.56
2022-11-05T09:15:35.420Z,57.54
2022-11-05T09:18:25.967Z,57.57
2022-11-05T09:21:17.126Z,57.61
2022-11-05T09:24:09.155Z,57.60
2022-11-05T09:26:59.480Z,57.62
2022-11-05T09:29:49.881Z,57.60
2022-11-05T09:32:40.202Z,57.58
2022-11-05T09:35:30.679Z,57.55
2022-11-05T09:38:21.137Z,57.55
2022-11-05T09:41:26.483Z,57.56
2022-11-05T09:44:18.507Z,57.57
2022-11-05T09:47:14.326Z,57.55
2022-11-05T09:50:08.112Z,57.53
2022-11-05T09:52:58.567Z,57.55
2022-11-05T09:55:51.425Z,57.51
2022-11-05T09:58:44.017Z,57.51
2022-11-05T10:01:36.706Z,57.50
2022-11-05T10:04:31.028Z,57.50
2022-11-05T10:07:25.369Z,57.50
2022-11-05T10:10:28.958Z,57.54
2022-11-05T10:13:38.138Z,57.54
2022-11-05T10:16:31.150Z,57.53
2022-11-05T10:19:23.822Z,57.49
2022-11-05T10:22:16.026Z,57.54
2022-11-05T10:25:17.597Z,57.47
2022-11-05T10:28:10.945Z,57.49
2022-11-05T10:31:03.675Z,57.44
2022-11-05T10:34:08.040Z,57.52
2022-11-05T10:36:58.676Z,57.43
2022-11-05T10:39:49.047Z,57.46
2022-11-05T10:42:53.208Z,57.52
2022-11-05T10:45:52.134Z,57.49
2022-11-05T10:48:53.471Z,57.50
2022-11-05T10:51:44.930Z,57.46
2022-11-05T10:54:35.738Z,57.45
2022-11-05T10:57:31.973Z,57.51
2022-11-05T11:00:28.951Z,57.40
2022-11-05T11:03:40.290Z,57.33
2022-11-05T11:06:33.944Z,57.43
2022-11-05T11:09:27.824Z,57.45
2022-11-05T11:12:22.167Z,57.38
2022-11-05T11:15:21.999Z,57.32
2022-11-05T11:18:31.506Z,57.32
2022-11-05T11:21:23.954Z,57.37
2022-11-05T11:24:22.645Z,57.32
2022-11-05T11:27:15.496Z,57.41
2022-11-05T11:30:15.873Z,57.44
2022-11-05T11:33:09.209Z,57.43
2022-11-05T11:36:00.243Z,57.40
2022-11-05T11:38:52.677Z,57.37
2022-11-05T11:41:46.539Z,57.36
2022-11-05T11:44:41.770Z,57.36
2022-11-05T11:47:32.249Z,57.32
2022-11-05T11:50:39.970Z,57.30
2022-11-05T11:53:35.172Z,57.24
2022-11-05T11:56:26.125Z,57.32
2022-11-05T11:59:35.365Z,57.34
2022-11-05T12:03:06.008Z,57.33
2022-11-05T12:06:03.353Z,57.35
2022-11-05T12:09:05.365Z,57.35
2022-11-05T12:12:03.012Z,57.38
2022-11-05T12:14:55.710Z,57.39
2022-11-05T12:17:50.423Z,57.37
2022-11-05T12:21:10.514Z,57.30
2022-11-05T12:24:27.912Z,57.36
2022-11-05T12:27:32.468Z,57.39
2022-11-05T12:30:23.352Z,57.37
2022-11-05T12:33:23.099Z,57.32
2022-11-05T12:36:29.871Z,57.30
2022-11-05T12:40:05.698Z,57.35
2022-11-05T12:43:07.660Z,57.36
2022-11-05T12:46:04.160Z,57.34
2022-11-05T12:49:17.319Z,57.26
2022-11-05T12:52:35.511Z,57.24
2022-11-05T12:55:28.935Z,57.27
2022-11-05T12:58:23.587Z,57.29
2022-11-05T13:01:19.495Z,57.27
2022-11-05T13:04:13.678Z,57.31
2022-11-05T13:07:06.529Z,57.31
2022-11-05T13:09:59.313Z,57.26
2022-11-05T13:12:57.440Z,57.27
2022-11-05T13:15:51.972Z,57.17
2022-11-05T13:18:52.540Z,57.04
2022-11-05T13:21:45.678Z,57.15
2022-11-05T13:24:39.124Z,57.27
2022-11-05T13:27:44.855Z,57.26
2022-11-05T13:30:45.540Z,57.27
2022-11-05T13:33:39.374Z,57.26
2022-11-05T13:36:50.729Z,57.25
2022-11-05T13:39:52.928Z,57.19
2022-11-05T13:43:44.755Z,57.22
2022-11-05T13:47:06.836Z,57.20
2022-11-05T13:50:24.809Z,57.18
2022-11-05T13:54:22.230Z,57.22
2022-11-05T13:57:29.051Z,57.26
2022-11-05T14:00:23.966Z,57.17
2022-11-05T14:03:18.258Z,56.82
2022-11-05T14:06:10.482Z,56.80
2022-11-05T14:09:03.559Z,57.06
2022-11-05T14:11:55.872Z,57.12
2022-11-05T14:14:50.522Z,57.27
2022-11-05T14:17:59.111Z,57.33
2022-11-05T14:21:00.088Z,57.33
2022-11-05T14:23:54.692Z,57.31
2022-11-05T14:27:09.233Z,57.34
2022-11-05T14:29:59.933Z,57.35
2022-11-05T14:32:55.098Z,57.32
2022-11-05T14:35:45.886Z,57.29
2022-11-05T14:38:39.797Z,57.35
2022-11-05T14:41:31.324Z,57.39
2022-11-05T14:44:23.298Z,57.41
2022-11-05T14:47:22.727Z,57.45
2022-11-05T14:50:18.133Z,57.52
2022-11-05T14:53:25.883Z,57.55
2022-11-05T14:56:18.267Z,57.62
2022-11-05T14:59:52.609Z,57.65
2022-11-05T15:02:43.068Z,57.64
2022-11-05T15:05:51.286Z,57.63
2022-11-05T15:08:56.957Z,57.63
2022-11-05T15:12:01.834Z,57.60
2022-11-05T15:14:57.589Z,57.56
2022-11-05T15:18:00.194Z,57.54
2022-11-05T15:20:55.757Z,57.54
2022-11-05T15:23:47.066Z,57.51
2022-11-05T15:26:42.768Z,57.42
2022-11-05T15:29:33.305Z,57.44
2022-11-05T15:32:26.066Z,57.47
2022-11-05T15:35:26.408Z,57.43
2022-11-05T15:38:33.410Z,57.40
2022-11-05T15:41:27.886Z,57.36
2022-11-05T15:44:30.088Z,57.31
2022-11-05T15:47:23.426Z,57.34
2022-11-05T15:50:15.994Z,57.34
2022-11-05T15:53:44.147Z,57.32
2022-11-05T15:56:32.814Z,57.33
2022-11-05T15:59:24.433Z,57.35
2022-11-05T16:02:33.145Z,57.36
2022-11-05T16:05:23.611Z,57.41
2022-11-05T16:08:19.322Z,57.45
2022-11-05T16:11:09.733Z,57.46
2022-11-05T16:14:16.631Z,57.46
2022-11-05T16:17:21.144Z,57.48
2022-11-05T16:20:24.172Z,57.51
2022-11-05T16:23:25.451Z,57.49
2022-11-05T16:29:56.684Z,57.51
2022-11-05T16:32:47.159Z,57.49
2022-11-05T16:35:40.114Z,57.49
2022-11-05T16:38:30.483Z,57.48
2022-11-05T16:41:23.402Z,57.48
2022-11-05T16:44:13.770Z,57.46
2022-11-05T16:47:04.339Z,57.45
2022-11-05T16:49:56.238Z,57.46
2022-11-05T16:52:48.010Z,57.44
2022-11-05T16:55:40.184Z,57.45
2022-11-05T16:58:30.611Z,57.46
2022-11-05T17:01:22.695Z,57.48
2022-11-05T17:04:14.117Z,57.47
2022-11-05T17:07:06.325Z,57.44
2022-11-05T17:09:57.281Z,57.39
2022-11-05T17:12:47.834Z,57.34
2022-11-05T17:15:38.245Z,57.31
2022-11-05T17:18:32.823Z,57.32
2022-11-05T17:21:23.257Z,57.31
2022-11-05T17:24:13.717Z,57.30
2022-11-05T17:27:04.296Z,57.28
2022-11-05T17:29:54.697Z,57.27
2022-11-05T17:32:45.245Z,57.31
2022-11-05T17:35:35.788Z,57.39
2022-11-05T17:38:26.414Z,57.43
2022-11-05T17:41:18.314Z,57.43
2022-11-05T17:44:10.818Z,57.41
2022-11-05T17:47:01.192Z,57.43
2022-11-05T17:49:51.562Z,57.44
2022-11-05T17:52:42.042Z,57.46
2022-11-05T17:55:33.426Z,57.51
2022-11-05T17:58:25.250Z,57.54
2022-11-05T18:01:26.684Z,57.57
2022-11-05T18:04:17.116Z,57.60
2022-11-05T18:07:07.794Z,57.64
2022-11-05T18:09:58.446Z,57.65
2022-11-05T18:12:48.867Z,57.67
2022-11-05T18:15:40.454Z,57.66
2022-11-05T18:18:30.870Z,57.67
2022-11-05T18:21:21.200Z,57.68
2022-11-05T18:24:11.642Z,57.69
2022-11-05T18:27:02.210Z,57.69
2022-11-05T18:29:52.895Z,57.67
2022-11-05T18:32:45.587Z,57.64
2022-11-05T18:35:41.412Z,57.63
2022-11-05T18:38:31.762Z,57.62
2022-11-05T18:41:22.166Z,57.60
2022-11-05T18:44:16.162Z,57.61
2022-11-05T18:47:09.376Z,57.61
2022-11-05T18:50:00.044Z,57.60
2022-11-05T18:52:50.380Z,57.58
2022-11-05T18:55:41.558Z,57.56
2022-11-05T18:58:33.548Z,57.54
2022-11-05T19:01:26.154Z,57.50
2022-11-05T19:04:16.655Z,57.46
2022-11-05T19:07:07.589Z,57.42
2022-11-05T19:09:58.020Z,57.39
2022-11-05T19:12:48.677Z,57.38
2022-11-05T19:15:43.576Z,57.39
2022-11-05T19:18:34.121Z,57.40
2022-11-05T19:21:25.739Z,57.37
2022-11-05T19:24:17.488Z,57.36
2022-11-05T19:27:07.934Z,57.35
2022-11-05T19:29:58.804Z,57.34
2022-11-05T19:32:49.460Z,57.33
2022-11-05T19:35:41.956Z,57.33
2022-11-05T19:38:32.375Z,57.38
2022-11-05T19:41:22.814Z,57.41
2022-11-05T19:44:13.397Z,57.43
2022-11-05T19:47:04.088Z,57.45
2022-11-05T19:49:54.520Z,57.46
2022-11-05T19:52:45.162Z,57.46
2022-11-05T19:55:38.094Z,57.47
2022-11-05T19:58:28.391Z,57.48
2022-11-05T20:01:19.628Z,57.49
2022-11-05T20:04:11.847Z,57.49
2022-11-05T20:07:03.437Z,57.49
2022-11-05T20:09:54.497Z,57.49
2022-11-05T20:12:44.958Z,57.48
2022-11-05T20:15:38.963Z,57.48
2022-11-05T20:18:29.669Z,57.48
2022-11-05T20:21:20.097Z,57.50
2022-11-05T20:24:13.273Z,57.49
2022-11-05T20:27:05.066Z,57.51
2022-11-05T20:29:55.451Z,57.52
2022-11-05T20:32:46.746Z,57.51
2022-11-05T20:35:39.103Z,57.51
2022-11-05T20:38:32.059Z,57.51
2022-11-05T20:41:23.911Z,57.52
2022-11-05T20:44:14.391Z,57.51
2022-11-05T20:47:04.998Z,57.51
2022-11-05T20:49:56.653Z,57.49
2022-11-05T20:52:47.107Z,57.47
2022-11-05T20:55:43.375Z,57.46
2022-11-05T20:58:34.344Z,57.46
2022-11-05T21:01:27.198Z,57.44
2022-11-05T21:04:19.388Z,57.43
2022-11-05T21:07:09.763Z,57.40
2022-11-05T21:10:07.005Z,57.40
2022-11-05T21:13:00.577Z,57.40
2022-11-05T21:15:53.125Z,57.39
2022-11-05T21:18:43.508Z,57.40
2022-11-05T21:21:37.506Z,57.45
2022-11-05T21:24:33.236Z,57.48
2022-11-05T21:27:26.176Z,57.48
2022-11-05T21:30:17.307Z,57.49
2022-11-05T21:33:08.112Z,57.53
2022-11-05T21:35:58.716Z,57.56
2022-11-05T21:38:49.113Z,57.55
2022-11-05T21:41:39.765Z,57.59
2022-11-05T21:44:30.215Z,57.64
2022-11-05T21:47:20.589Z,57.69
2022-11-05T21:50:11.212Z,57.70
2022-11-05T21:53:19.294Z,57.70
2022-11-05T21:56:33.835Z,57.73
2022-11-05T21:59:43.028Z,57.74
2022-11-05T22:02:33.483Z,57.71
2022-11-05T22:05:23.991Z,57.71
2022-11-05T22:08:14.784Z,57.74
2022-11-05T22:11:05.980Z,57.75
2022-11-05T22:13:56.499Z,57.74
2022-11-05T22:16:46.935Z,57.73
2022-11-05T22:19:37.727Z,57.74
2022-11-05T22:22:28.575Z,57.73
2022-11-05T22:25:18.980Z,57.73
2022-11-05T22:28:09.442Z,57.70
2022-11-05T22:31:00.107Z,57.72
2022-11-05T22:33:50.534Z,57.72
2022-11-05T22:36:40.941Z,57.70
2022-11-05T22:39:31.446Z,57.71
2022-11-05T22:42:21.824Z,57.69
2022-11-05T22:45:12.591Z,57.69
2022-11-05T22:48:06.741Z,57.63
2022-11-05T22:50:57.332Z,57.66
2022-11-05T22:53:48.321Z,57.64
2022-11-05T22:56:40.718Z,57.67
2022-11-05T22:59:31.103Z,57.68
2022-11-05T23:02:21.525Z,57.67
2022-11-05T23:05:12.108Z,57.63
2022-11-05T23:08:20.951Z,57.62
2022-11-05T23:11:34.064Z,57.64
2022-11-05T23:14:24.329Z,57.65
2022-11-05T23:17:33.021Z,57.65
2022-11-05T23:20:42.470Z,57.65
2022-11-05T23:23:51.499Z,57.66
2022-11-05T23:26:50.978Z,57.64
2022-11-05T23:29:41.682Z,57.65
2022-11-05T23:32:32.966Z,57.66
2022-11-05T23:35:37.920Z,57.64
2022-11-05T23:38:34.598Z,57.64
2022-11-05T23:41:44.690Z,57.63
2022-11-05T23:44:53.252Z,57.62
2022-11-05T23:48:02.182Z,57.62
2022-11-05T23:50:57.633Z,57.61
2022-11-05T23:53:48.026Z,57.59
2022-11-05T23:56:38.543Z,57.54
2022-11-05T23:59:28.886Z,57.56
